sensor_id;sensor_type;location;lat;lon;timestamp;P1;durP1;ratioP1;P2;durP2;ratioP2
19107;SDS011;9686;48.832;9.126;2023-02-01T00:01:46;3.40;;;2.10;;
19107;SDS011;9686;48.832;9.126;2023-02-01T00:04:11;2.40;;;2.17;;
19107;SDS011;9686;48.832;9.126;2023-02-01T00:06:37;2.77;;;2.20;;
19107;SDS011;9686;48.832;9.126;2023-02-01T00:09:02;3.00;;;2.13;;
19107;SDS011;9686;48.832;9.126;2023-02-01T00:11:28;3.00;;;2.27;;
19107;SDS011;9686;48.832;9.126;2023-02-01T00:13:53;2.63;;;2.10;;
19107;SDS011;9686;48.832;9.126;2023-02-01T00:16:20;4.77;;;2.10;;
19107;SDS011;9686;48.832;9.126;2023-02-01T00:18:48;5.80;;;2.63;;
19107;SDS011;9686;48.832;9.126;2023-02-01T00:21:16;2.47;;;2.10;;
19107;SDS011;9686;48.832;9.126;2023-02-01T00:23:43;2.57;;;1.80;;
19107;SDS011;9686;48.832;9.126;2023-02-01T00:26:16;2.37;;;2.10;;
19107;SDS011;9686;48.832;9.126;2023-02-01T00:28:43;1.97;;;1.77;;
19107;SDS011;9686;48.832;9.126;2023-02-01T00:31:08;1.63;;;1.50;;
19107;SDS011;9686;48.832;9.126;2023-02-01T00:33:34;1.83;;;1.73;;
19107;SDS011;9686;48.832;9.126;2023-02-01T00:36:00;2.67;;;1.60;;
19107;SDS011;9686;48.832;9.126;2023-02-01T00:38:27;2.53;;;1.80;;
19107;SDS011;9686;48.832;9.126;2023-02-01T00:40:53;2.60;;;2.23;;
19107;SDS011;9686;48.832;9.126;2023-02-01T00:43:19;1.97;;;1.70;;
19107;SDS011;9686;48.832;9.126;2023-02-01T00:45:45;3.10;;;2.00;;
19107;SDS011;9686;48.832;9.126;2023-02-01T00:48:11;2.70;;;1.87;;
19107;SDS011;9686;48.832;9.126;2023-02-01T00:50:40;3.37;;;2.30;;
19107;SDS011;9686;48.832;9.126;2023-02-01T00:53:06;3.37;;;2.00;;
19107;SDS011;9686;48.832;9.126;2023-02-01T00:55:31;2.67;;;1.93;;
19107;SDS011;9686;48.832;9.126;2023-02-01T00:57:57;2.53;;;1.70;;
19107;SDS011;9686;48.832;9.126;2023-02-01T01:00:22;3.37;;;1.63;;
19107;SDS011;9686;48.832;9.126;2023-02-01T01:02:47;2.20;;;1.70;;
19107;SDS011;9686;48.832;9.126;2023-02-01T01:05:13;5.40;;;2.10;;
19107;SDS011;9686;48.832;9.126;2023-02-01T01:07:38;2.63;;;1.57;;
19107;SDS011;9686;48.832;9.126;2023-02-01T01:10:04;2.57;;;1.80;;
19107;SDS011;9686;48.832;9.126;2023-02-01T01:12:30;1.97;;;1.77;;
19107;SDS011;9686;48.832;9.126;2023-02-01T01:14:55;1.93;;;1.50;;
19107;SDS011;9686;48.832;9.126;2023-02-01T01:17:20;2.53;;;1.67;;
19107;SDS011;9686;48.832;9.126;2023-02-01T01:19:45;1.70;;;1.40;;
19107;SDS011;9686;48.832;9.126;2023-02-01T01:22:12;2.40;;;1.70;;
19107;SDS011;9686;48.832;9.126;2023-02-01T01:24:37;2.07;;;1.63;;
19107;SDS011;9686;48.832;9.126;2023-02-01T01:27:02;2.27;;;1.77;;
19107;SDS011;9686;48.832;9.126;2023-02-01T01:29:28;2.40;;;1.73;;
19107;SDS011;9686;48.832;9.126;2023-02-01T01:31:53;1.60;;;1.50;;
19107;SDS011;9686;48.832;9.126;2023-02-01T01:34:18;1.50;;;1.40;;
19107;SDS011;9686;48.832;9.126;2023-02-01T01:36:43;2.73;;;1.70;;
19107;SDS011;9686;48.832;9.126;2023-02-01T01:39:09;1.83;;;1.60;;
19107;SDS011;9686;48.832;9.126;2023-02-01T01:41:34;1.37;;;1.27;;
19107;SDS011;9686;48.832;9.126;2023-02-01T01:44:00;1.43;;;1.20;;
19107;SDS011;9686;48.832;9.126;2023-02-01T01:46:34;1.97;;;1.33;;
19107;SDS011;9686;48.832;9.126;2023-02-01T01:49:12;1.43;;;1.30;;
19107;SDS011;9686;48.832;9.126;2023-02-01T01:51:49;1.23;;;1.10;;
19107;SDS011;9686;48.832;9.126;2023-02-01T01:54:21;2.30;;;1.50;;
19107;SDS011;9686;48.832;9.126;2023-02-01T01:56:53;1.77;;;1.30;;
19107;SDS011;9686;48.832;9.126;2023-02-01T01:59:22;1.57;;;1.00;;
19107;SDS011;9686;48.832;9.126;2023-02-01T02:01:49;1.27;;;1.10;;
19107;SDS011;9686;48.832;9.126;2023-02-01T02:04:15;1.10;;;0.90;;
19107;SDS011;9686;48.832;9.126;2023-02-01T02:09:16;1.30;;;1.20;;
19107;SDS011;9686;48.832;9.126;2023-02-01T02:11:42;1.53;;;1.20;;
19107;SDS011;9686;48.832;9.126;2023-02-01T02:14:08;1.70;;;1.10;;
19107;SDS011;9686;48.832;9.126;2023-02-01T02:22:18;1.67;;;1.40;;
19107;SDS011;9686;48.832;9.126;2023-02-01T02:47:53;2.30;;;1.37;;
19107;SDS011;9686;48.832;9.126;2023-02-01T02:50:37;1.40;;;1.30;;
19107;SDS011;9686;48.832;9.126;2023-02-01T02:54:20;1.70;;;1.40;;
19107;SDS011;9686;48.832;9.126;2023-02-01T02:56:43;1.60;;;1.40;;
19107;SDS011;9686;48.832;9.126;2023-02-01T02:59:27;1.50;;;1.40;;
19107;SDS011;9686;48.832;9.126;2023-02-01T03:02:14;1.60;;;1.50;;
19107;SDS011;9686;48.832;9.126;2023-02-01T03:04:59;1.50;;;1.30;;
19107;SDS011;9686;48.832;9.126;2023-02-01T03:10:47;1.70;;;1.57;;
19107;SDS011;9686;48.832;9.126;2023-02-01T03:16:26;2.57;;;1.80;;
19107;SDS011;9686;48.832;9.126;2023-02-01T03:19:12;2.17;;;1.40;;
19107;SDS011;9686;48.832;9.126;2023-02-01T03:22:19;2.20;;;2.00;;
19107;SDS011;9686;48.832;9.126;2023-02-01T03:29:51;1.83;;;1.40;;
19107;SDS011;9686;48.832;9.126;2023-02-01T03:32:21;1.40;;;1.20;;
19107;SDS011;9686;48.832;9.126;2023-02-01T03:34:47;2.17;;;1.53;;
19107;SDS011;9686;48.832;9.126;2023-02-01T03:37:14;1.93;;;1.37;;
19107;SDS011;9686;48.832;9.126;2023-02-01T03:39:48;1.53;;;1.40;;
19107;SDS011;9686;48.832;9.126;2023-02-01T03:42:19;1.27;;;1.17;;
19107;SDS011;9686;48.832;9.126;2023-02-01T03:45:01;1.70;;;1.50;;
19107;SDS011;9686;48.832;9.126;2023-02-01T03:47:37;1.27;;;1.07;;
19107;SDS011;9686;48.832;9.126;2023-02-01T03:50:08;1.23;;;1.13;;
19107;SDS011;9686;48.832;9.126;2023-02-01T03:52:47;1.30;;;1.20;;
19107;SDS011;9686;48.832;9.126;2023-02-01T03:55:16;2.50;;;1.30;;
19107;SDS011;9686;48.832;9.126;2023-02-01T03:58:30;2.63;;;2.43;;
19107;SDS011;9686;48.832;9.126;2023-02-01T04:00:37;1.87;;;1.40;;
19107;SDS011;9686;48.832;9.126;2023-02-01T04:03:03;1.20;;;1.10;;
19107;SDS011;9686;48.832;9.126;2023-02-01T04:05:30;1.93;;;1.50;;
19107;SDS011;9686;48.832;9.126;2023-02-01T04:07:55;1.30;;;1.20;;
19107;SDS011;9686;48.832;9.126;2023-02-01T04:10:22;1.53;;;1.43;;
19107;SDS011;9686;48.832;9.126;2023-02-01T04:12:47;2.43;;;1.33;;
19107;SDS011;9686;48.832;9.126;2023-02-01T04:15:12;1.43;;;1.33;;
19107;SDS011;9686;48.832;9.126;2023-02-01T04:17:37;3.63;;;1.50;;
19107;SDS011;9686;48.832;9.126;2023-02-01T04:20:03;1.20;;;1.10;;
19107;SDS011;9686;48.832;9.126;2023-02-01T04:22:29;1.80;;;1.50;;
19107;SDS011;9686;48.832;9.126;2023-02-01T04:24:55;1.90;;;1.63;;
19107;SDS011;9686;48.832;9.126;2023-02-01T04:27:20;2.10;;;1.60;;
19107;SDS011;9686;48.832;9.126;2023-02-01T04:29:45;1.60;;;1.50;;
19107;SDS011;9686;48.832;9.126;2023-02-01T04:32:14;1.90;;;1.17;;
19107;SDS011;9686;48.832;9.126;2023-02-01T04:34:40;2.33;;;1.80;;
19107;SDS011;9686;48.832;9.126;2023-02-01T04:37:06;1.37;;;1.13;;
19107;SDS011;9686;48.832;9.126;2023-02-01T04:39:32;1.47;;;1.20;;
19107;SDS011;9686;48.832;9.126;2023-02-01T04:41:57;1.90;;;1.63;;
19107;SDS011;9686;48.832;9.126;2023-02-01T04:44:22;1.27;;;1.17;;
19107;SDS011;9686;48.832;9.126;2023-02-01T04:46:48;1.23;;;1.13;;
19107;SDS011;9686;48.832;9.126;2023-02-01T04:49:13;2.20;;;1.30;;
19107;SDS011;9686;48.832;9.126;2023-02-01T04:51:40;3.53;;;1.47;;
19107;SDS011;9686;48.832;9.126;2023-02-01T04:54:05;1.77;;;1.40;;
19107;SDS011;9686;48.832;9.126;2023-02-01T04:56:31;1.20;;;1.10;;
19107;SDS011;9686;48.832;9.126;2023-02-01T04:58:56;1.53;;;1.30;;
19107;SDS011;9686;48.832;9.126;2023-02-01T05:01:22;1.50;;;1.40;;
19107;SDS011;9686;48.832;9.126;2023-02-01T05:03:49;2.67;;;1.20;;
19107;SDS011;9686;48.832;9.126;2023-02-01T05:06:14;1.50;;;1.40;;
19107;SDS011;9686;48.832;9.126;2023-02-01T05:08:40;2.87;;;1.70;;
19107;SDS011;9686;48.832;9.126;2023-02-01T05:11:05;4.10;;;1.30;;
19107;SDS011;9686;48.832;9.126;2023-02-01T05:13:31;1.70;;;1.60;;
19107;SDS011;9686;48.832;9.126;2023-02-01T05:16:14;1.87;;;1.40;;
19107;SDS011;9686;48.832;9.126;2023-02-01T05:18:40;2.93;;;1.60;;
19107;SDS011;9686;48.832;9.126;2023-02-01T05:21:06;1.60;;;1.50;;
19107;SDS011;9686;48.832;9.126;2023-02-01T05:23:31;1.40;;;1.30;;
19107;SDS011;9686;48.832;9.126;2023-02-01T05:25:59;2.00;;;1.17;;
19107;SDS011;9686;48.832;9.126;2023-02-01T05:28:26;1.67;;;1.40;;
19107;SDS011;9686;48.832;9.126;2023-02-01T05:30:52;1.63;;;1.13;;
19107;SDS011;9686;48.832;9.126;2023-02-01T05:33:18;2.13;;;1.37;;
19107;SDS011;9686;48.832;9.126;2023-02-01T05:35:43;2.90;;;1.83;;
19107;SDS011;9686;48.832;9.126;2023-02-01T05:38:08;2.27;;;1.60;;
19107;SDS011;9686;48.832;9.126;2023-02-01T05:40:34;2.37;;;1.70;;
19107;SDS011;9686;48.832;9.126;2023-02-01T05:42:59;2.53;;;1.47;;
19107;SDS011;9686;48.832;9.126;2023-02-01T05:45:24;1.80;;;1.40;;
19107;SDS011;9686;48.832;9.126;2023-02-01T05:47:49;1.50;;;1.40;;
19107;SDS011;9686;48.832;9.126;2023-02-01T05:50:15;1.30;;;1.20;;
19107;SDS011;9686;48.832;9.126;2023-02-01T05:52:41;1.83;;;1.43;;
19107;SDS011;9686;48.832;9.126;2023-02-01T05:55:07;1.60;;;1.20;;
19107;SDS011;9686;48.832;9.126;2023-02-01T05:57:32;2.40;;;1.50;;
19107;SDS011;9686;48.832;9.126;2023-02-01T05:59:57;1.30;;;1.20;;
19107;SDS011;9686;48.832;9.126;2023-02-01T06:02:23;1.50;;;1.33;;
19107;SDS011;9686;48.832;9.126;2023-02-01T06:04:49;1.97;;;1.20;;
19107;SDS011;9686;48.832;9.126;2023-02-01T06:07:14;2.47;;;1.30;;
19107;SDS011;9686;48.832;9.126;2023-02-01T06:09:40;1.83;;;1.20;;
19107;SDS011;9686;48.832;9.126;2023-02-01T06:12:05;2.10;;;1.00;;
19107;SDS011;9686;48.832;9.126;2023-02-01T06:14:30;2.43;;;1.40;;
19107;SDS011;9686;48.832;9.126;2023-02-01T06:16:56;1.77;;;1.20;;
19107;SDS011;9686;48.832;9.126;2023-02-01T06:19:22;2.97;;;1.47;;
19107;SDS011;9686;48.832;9.126;2023-02-01T06:21:48;1.40;;;1.30;;
19107;SDS011;9686;48.832;9.126;2023-02-01T06:24:13;1.53;;;1.30;;
19107;SDS011;9686;48.832;9.126;2023-02-01T06:26:39;2.70;;;1.47;;
19107;SDS011;9686;48.832;9.126;2023-02-01T06:29:05;1.67;;;1.43;;
19107;SDS011;9686;48.832;9.126;2023-02-01T06:31:31;2.13;;;1.30;;
19107;SDS011;9686;48.832;9.126;2023-02-01T06:33:57;2.27;;;1.37;;
19107;SDS011;9686;48.832;9.126;2023-02-01T06:36:22;2.33;;;1.57;;
19107;SDS011;9686;48.832;9.126;2023-02-01T06:38:48;3.33;;;2.10;;
19107;SDS011;9686;48.832;9.126;2023-02-01T06:41:13;5.83;;;1.80;;
19107;SDS011;9686;48.832;9.126;2023-02-01T06:43:39;3.73;;;2.27;;
19107;SDS011;9686;48.832;9.126;2023-02-01T06:46:05;2.07;;;1.53;;
19107;SDS011;9686;48.832;9.126;2023-02-01T06:48:32;3.90;;;2.00;;
19107;SDS011;9686;48.832;9.126;2023-02-01T06:50:59;2.80;;;2.10;;
19107;SDS011;9686;48.832;9.126;2023-02-01T06:53:24;2.27;;;1.87;;
19107;SDS011;9686;48.832;9.126;2023-02-01T06:58:18;4.37;;;2.67;;
19107;SDS011;9686;48.832;9.126;2023-02-01T07:00:43;2.63;;;2.00;;
19107;SDS011;9686;48.832;9.126;2023-02-01T07:03:08;2.40;;;1.93;;
19107;SDS011;9686;48.832;9.126;2023-02-01T07:05:33;3.53;;;2.03;;
19107;SDS011;9686;48.832;9.126;2023-02-01T07:07:59;4.00;;;2.07;;
19107;SDS011;9686;48.832;9.126;2023-02-01T07:10:24;3.73;;;2.10;;
19107;SDS011;9686;48.832;9.126;2023-02-01T07:12:49;6.00;;;2.40;;
19107;SDS011;9686;48.832;9.126;2023-02-01T07:15:15;4.63;;;2.17;;
19107;SDS011;9686;48.832;9.126;2023-02-01T07:17:40;4.60;;;2.47;;
19107;SDS011;9686;48.832;9.126;2023-02-01T07:20:05;7.47;;;2.50;;
19107;SDS011;9686;48.832;9.126;2023-02-01T07:22:31;3.77;;;2.23;;
19107;SDS011;9686;48.832;9.126;2023-02-01T07:24:57;3.73;;;2.27;;
19107;SDS011;9686;48.832;9.126;2023-02-01T07:27:22;4.33;;;2.23;;
19107;SDS011;9686;48.832;9.126;2023-02-01T07:29:49;5.83;;;2.10;;
19107;SDS011;9686;48.832;9.126;2023-02-01T07:32:15;6.80;;;2.37;;
19107;SDS011;9686;48.832;9.126;2023-02-01T07:34:42;6.30;;;2.67;;
19107;SDS011;9686;48.832;9.126;2023-02-01T07:37:08;5.27;;;2.40;;
19107;SDS011;9686;48.832;9.126;2023-02-01T07:39:33;7.10;;;2.10;;
19107;SDS011;9686;48.832;9.126;2023-02-01T07:41:59;5.13;;;2.70;;
19107;SDS011;9686;48.832;9.126;2023-02-01T07:44:24;7.93;;;2.60;;
19107;SDS011;9686;48.832;9.126;2023-02-01T07:46:50;5.60;;;2.30;;
19107;SDS011;9686;48.832;9.126;2023-02-01T07:49:15;3.80;;;2.23;;
19107;SDS011;9686;48.832;9.126;2023-02-01T07:51:42;7.80;;;2.50;;
19107;SDS011;9686;48.832;9.126;2023-02-01T07:54:07;4.87;;;2.40;;
19107;SDS011;9686;48.832;9.126;2023-02-01T07:56:33;8.03;;;2.20;;
19107;SDS011;9686;48.832;9.126;2023-02-01T07:58:58;5.50;;;3.03;;
19107;SDS011;9686;48.832;9.126;2023-02-01T08:01:26;7.20;;;3.03;;
19107;SDS011;9686;48.832;9.126;2023-02-01T08:03:56;5.03;;;2.63;;
19107;SDS011;9686;48.832;9.126;2023-02-01T08:06:26;6.23;;;2.97;;
19107;SDS011;9686;48.832;9.126;2023-02-01T08:08:53;7.97;;;2.87;;
19107;SDS011;9686;48.832;9.126;2023-02-01T08:11:19;6.67;;;2.33;;
19107;SDS011;9686;48.832;9.126;2023-02-01T08:13:45;5.23;;;2.47;;
19107;SDS011;9686;48.832;9.126;2023-02-01T08:16:12;4.87;;;2.70;;
19107;SDS011;9686;48.832;9.126;2023-02-01T08:18:38;9.20;;;3.10;;
19107;SDS011;9686;48.832;9.126;2023-02-01T08:21:08;5.83;;;2.50;;
19107;SDS011;9686;48.832;9.126;2023-02-01T08:23:36;7.37;;;2.27;;
19107;SDS011;9686;48.832;9.126;2023-02-01T08:26:09;4.97;;;2.50;;
19107;SDS011;9686;48.832;9.126;2023-02-01T08:28:40;9.37;;;3.50;;
19107;SDS011;9686;48.832;9.126;2023-02-01T08:31:08;6.53;;;2.30;;
19107;SDS011;9686;48.832;9.126;2023-02-01T08:33:36;6.97;;;2.67;;
19107;SDS011;9686;48.832;9.126;2023-02-01T08:36:03;7.23;;;2.63;;
19107;SDS011;9686;48.832;9.126;2023-02-01T08:38:30;6.63;;;2.40;;
19107;SDS011;9686;48.832;9.126;2023-02-01T08:40:55;8.23;;;2.37;;
19107;SDS011;9686;48.832;9.126;2023-02-01T08:43:21;9.57;;;2.40;;
19107;SDS011;9686;48.832;9.126;2023-02-01T08:45:46;5.87;;;2.10;;
19107;SDS011;9686;48.832;9.126;2023-02-01T08:48:12;6.87;;;2.87;;
19107;SDS011;9686;48.832;9.126;2023-02-01T08:50:37;2.73;;;1.97;;
19107;SDS011;9686;48.832;9.126;2023-02-01T08:53:02;9.00;;;2.60;;
19107;SDS011;9686;48.832;9.126;2023-02-01T08:55:28;6.13;;;2.13;;
19107;SDS011;9686;48.832;9.126;2023-02-01T08:57:53;9.40;;;2.47;;
19107;SDS011;9686;48.832;9.126;2023-02-01T09:00:18;6.33;;;2.30;;
19107;SDS011;9686;48.832;9.126;2023-02-01T09:02:44;5.70;;;2.53;;
19107;SDS011;9686;48.832;9.126;2023-02-01T09:05:10;9.20;;;2.37;;
19107;SDS011;9686;48.832;9.126;2023-02-01T09:07:35;5.37;;;2.40;;
19107;SDS011;9686;48.832;9.126;2023-02-01T09:10:01;10.83;;;2.40;;
19107;SDS011;9686;48.832;9.126;2023-02-01T09:12:28;7.90;;;2.40;;
19107;SDS011;9686;48.832;9.126;2023-02-01T09:14:57;8.17;;;2.33;;
19107;SDS011;9686;48.832;9.126;2023-02-01T09:17:24;7.70;;;2.40;;
19107;SDS011;9686;48.832;9.126;2023-02-01T09:19:51;6.67;;;2.60;;
19107;SDS011;9686;48.832;9.126;2023-02-01T09:22:16;5.80;;;2.10;;
19107;SDS011;9686;48.832;9.126;2023-02-01T09:24:41;9.53;;;2.37;;
19107;SDS011;9686;48.832;9.126;2023-02-01T09:27:07;11.23;;;2.30;;
19107;SDS011;9686;48.832;9.126;2023-02-01T09:29:32;5.93;;;2.23;;
19107;SDS011;9686;48.832;9.126;2023-02-01T09:31:57;6.73;;;2.10;;
19107;SDS011;9686;48.832;9.126;2023-02-01T09:34:23;6.23;;;2.97;;
19107;SDS011;9686;48.832;9.126;2023-02-01T09:36:48;9.43;;;2.17;;
19107;SDS011;9686;48.832;9.126;2023-02-01T09:39:13;7.33;;;2.57;;
19107;SDS011;9686;48.832;9.126;2023-02-01T09:44:32;7.40;;;2.57;;
19107;SDS011;9686;48.832;9.126;2023-02-01T09:47:11;9.77;;;2.47;;
19107;SDS011;9686;48.832;9.126;2023-02-01T09:49:39;9.77;;;2.50;;
19107;SDS011;9686;48.832;9.126;2023-02-01T09:52:25;8.23;;;2.50;;
19107;SDS011;9686;48.832;9.126;2023-02-01T09:54:58;9.67;;;2.83;;
19107;SDS011;9686;48.832;9.126;2023-02-01T09:57:33;11.27;;;2.70;;
19107;SDS011;9686;48.832;9.126;2023-02-01T10:00:29;7.97;;;1.93;;
19107;SDS011;9686;48.832;9.126;2023-02-01T10:02:58;11.23;;;2.47;;
19107;SDS011;9686;48.832;9.126;2023-02-01T10:10:49;8.10;;;2.30;;
19107;SDS011;9686;48.832;9.126;2023-02-01T10:16:09;10.17;;;2.77;;
19107;SDS011;9686;48.832;9.126;2023-02-01T10:21:28;6.27;;;2.20;;
19107;SDS011;9686;48.832;9.126;2023-02-01T10:24:12;9.63;;;2.37;;
19107;SDS011;9686;48.832;9.126;2023-02-01T10:26:59;11.77;;;2.90;;
19107;SDS011;9686;48.832;9.126;2023-02-01T10:29:47;3.23;;;1.57;;
19107;SDS011;9686;48.832;9.126;2023-02-01T10:32:23;9.23;;;2.20;;
19107;SDS011;9686;48.832;9.126;2023-02-01T10:34:57;5.60;;;2.20;;
19107;SDS011;9686;48.832;9.126;2023-02-01T10:39:52;7.53;;;2.30;;
19107;SDS011;9686;48.832;9.126;2023-02-01T10:42:20;10.10;;;2.43;;
19107;SDS011;9686;48.832;9.126;2023-02-01T10:44:49;6.40;;;2.40;;
19107;SDS011;9686;48.832;9.126;2023-02-01T10:47:15;10.23;;;2.07;;
19107;SDS011;9686;48.832;9.126;2023-02-01T10:49:43;9.30;;;2.17;;
19107;SDS011;9686;48.832;9.126;2023-02-01T10:52:31;10.20;;;1.87;;
19107;SDS011;9686;48.832;9.126;2023-02-01T10:58:00;5.60;;;2.03;;
19107;SDS011;9686;48.832;9.126;2023-02-01T11:00:27;12.07;;;2.63;;
19107;SDS011;9686;48.832;9.126;2023-02-01T11:02:58;10.53;;;2.50;;
19107;SDS011;9686;48.832;9.126;2023-02-01T11:05:24;7.73;;;2.33;;
19107;SDS011;9686;48.832;9.126;2023-02-01T11:07:51;9.50;;;2.80;;
19107;SDS011;9686;48.832;9.126;2023-02-01T11:13:24;7.30;;;2.33;;
19107;SDS011;9686;48.832;9.126;2023-02-01T11:15:54;10.33;;;2.00;;
19107;SDS011;9686;48.832;9.126;2023-02-01T11:18:25;7.03;;;2.10;;
19107;SDS011;9686;48.832;9.126;2023-02-01T11:20:55;11.30;;;2.30;;
19107;SDS011;9686;48.832;9.126;2023-02-01T11:23:30;11.27;;;2.13;;
19107;SDS011;9686;48.832;9.126;2023-02-01T11:25:59;9.00;;;2.60;;
19107;SDS011;9686;48.832;9.126;2023-02-01T11:28:27;11.20;;;2.23;;
19107;SDS011;9686;48.832;9.126;2023-02-01T11:30:56;10.70;;;2.87;;
19107;SDS011;9686;48.832;9.126;2023-02-01T11:33:32;7.47;;;2.37;;
19107;SDS011;9686;48.832;9.126;2023-02-01T11:36:01;7.10;;;2.47;;
19107;SDS011;9686;48.832;9.126;2023-02-01T11:38:33;6.97;;;1.73;;
19107;SDS011;9686;48.832;9.126;2023-02-01T11:41:20;9.57;;;1.93;;
19107;SDS011;9686;48.832;9.126;2023-02-01T11:43:51;10.77;;;2.43;;
19107;SDS011;9686;48.832;9.126;2023-02-01T11:46:31;4.67;;;2.03;;
19107;SDS011;9686;48.832;9.126;2023-02-01T11:55:12;8.83;;;2.03;;
19107;SDS011;9686;48.832;9.126;2023-02-01T11:58:02;10.40;;;1.70;;
19107;SDS011;9686;48.832;9.126;2023-02-01T12:05:58;6.00;;;1.80;;
19107;SDS011;9686;48.832;9.126;2023-02-01T12:13:58;7.40;;;1.70;;
19107;SDS011;9686;48.832;9.126;2023-02-01T12:16:40;8.13;;;1.93;;
19107;SDS011;9686;48.832;9.126;2023-02-01T12:24:43;11.20;;;1.93;;
19107;SDS011;9686;48.832;9.126;2023-02-01T12:50:03;4.37;;;2.00;;
19107;SDS011;9686;48.832;9.126;2023-02-01T12:52:39;10.23;;;1.80;;
19107;SDS011;9686;48.832;9.126;2023-02-01T12:55:22;12.10;;;2.13;;
19107;SDS011;9686;48.832;9.126;2023-02-01T12:57:53;8.07;;;2.13;;
19107;SDS011;9686;48.832;9.126;2023-02-01T13:00:38;7.57;;;1.80;;
19107;SDS011;9686;48.832;9.126;2023-02-01T13:06:12;7.57;;;2.30;;
19107;SDS011;9686;48.832;9.126;2023-02-01T13:08:47;6.10;;;1.70;;
19107;SDS011;9686;48.832;9.126;2023-02-01T13:11:20;6.50;;;2.00;;
19107;SDS011;9686;48.832;9.126;2023-02-01T13:17:04;9.73;;;1.87;;
19107;SDS011;9686;48.832;9.126;2023-02-01T13:24:53;6.97;;;2.17;;
19107;SDS011;9686;48.832;9.126;2023-02-01T13:27:22;9.17;;;1.90;;
19107;SDS011;9686;48.832;9.126;2023-02-01T13:29:57;4.70;;;2.23;;
19107;SDS011;9686;48.832;9.126;2023-02-01T13:33:10;4.67;;;1.90;;
19107;SDS011;9686;48.832;9.126;2023-02-01T13:41:39;9.57;;;1.83;;
19107;SDS011;9686;48.832;9.126;2023-02-01T13:44:16;8.53;;;2.40;;
19107;SDS011;9686;48.832;9.126;2023-02-01T13:47:07;9.83;;;2.00;;
19107;SDS011;9686;48.832;9.126;2023-02-01T13:49:41;8.87;;;2.37;;
19107;SDS011;9686;48.832;9.126;2023-02-01T13:52:17;9.93;;;2.30;;
19107;SDS011;9686;48.832;9.126;2023-02-01T13:54:49;6.40;;;1.63;;
19107;SDS011;9686;48.832;9.126;2023-02-01T13:57:39;7.13;;;1.90;;
19107;SDS011;9686;48.832;9.126;2023-02-01T14:00:27;4.57;;;2.03;;
19107;SDS011;9686;48.832;9.126;2023-02-01T14:08:41;10.23;;;2.07;;
19107;SDS011;9686;48.832;9.126;2023-02-01T14:16:42;6.93;;;2.00;;
19107;SDS011;9686;48.832;9.126;2023-02-01T14:19:09;8.60;;;3.00;;
19107;SDS011;9686;48.832;9.126;2023-02-01T14:21:50;3.83;;;2.20;;
19107;SDS011;9686;48.832;9.126;2023-02-01T14:26:57;9.03;;;2.23;;
19107;SDS011;9686;48.832;9.126;2023-02-01T14:29:50;6.13;;;2.43;;
19107;SDS011;9686;48.832;9.126;2023-02-01T14:32:20;6.07;;;1.93;;
19107;SDS011;9686;48.832;9.126;2023-02-01T14:50:25;8.30;;;2.27;;
19107;SDS011;9686;48.832;9.126;2023-02-01T14:55:38;9.30;;;2.07;;
19107;SDS011;9686;48.832;9.126;2023-02-01T14:58:18;8.03;;;1.97;;
19107;SDS011;9686;48.832;9.126;2023-02-01T15:00:51;5.43;;;2.27;;
19107;SDS011;9686;48.832;9.126;2023-02-01T15:09:08;8.90;;;2.10;;
19107;SDS011;9686;48.832;9.126;2023-02-01T15:14:26;6.57;;;2.20;;
19107;SDS011;9686;48.832;9.126;2023-02-01T15:16:56;7.50;;;2.17;;
19107;SDS011;9686;48.832;9.126;2023-02-01T15:19:22;6.93;;;2.10;;
19107;SDS011;9686;48.832;9.126;2023-02-01T15:21:54;6.33;;;2.00;;
19107;SDS011;9686;48.832;9.126;2023-02-01T15:24:22;10.17;;;2.83;;
19107;SDS011;9686;48.832;9.126;2023-02-01T15:26:50;9.57;;;2.47;;
19107;SDS011;9686;48.832;9.126;2023-02-01T15:29:18;8.75;;;2.67;;
19107;SDS011;9686;48.832;9.126;2023-02-01T15:31:47;6.40;;;1.80;;
19107;SDS011;9686;48.832;9.126;2023-02-01T15:34:14;8.43;;;2.03;;
19107;SDS011;9686;48.832;9.126;2023-02-01T15:36:40;11.77;;;2.33;;
19107;SDS011;9686;48.832;9.126;2023-02-01T15:39:14;7.00;;;2.27;;
19107;SDS011;9686;48.832;9.126;2023-02-01T15:44:33;5.47;;;2.00;;
19107;SDS011;9686;48.832;9.126;2023-02-01T15:47:07;7.70;;;1.90;;
19107;SDS011;9686;48.832;9.126;2023-02-01T15:49:40;5.83;;;2.03;;
19107;SDS011;9686;48.832;9.126;2023-02-01T15:52:18;4.77;;;1.70;;
19107;SDS011;9686;48.832;9.126;2023-02-01T15:55:03;8.03;;;1.77;;
19107;SDS011;9686;48.832;9.126;2023-02-01T15:57:34;8.23;;;2.70;;
19107;SDS011;9686;48.832;9.126;2023-02-01T16:00:08;8.60;;;2.07;;
19107;SDS011;9686;48.832;9.126;2023-02-01T16:02:55;7.17;;;1.90;;
19107;SDS011;9686;48.832;9.126;2023-02-01T16:05:37;8.40;;;1.93;;
19107;SDS011;9686;48.832;9.126;2023-02-01T16:08:20;5.63;;;1.90;;
19107;SDS011;9686;48.832;9.126;2023-02-01T16:10:48;6.03;;;2.17;;
19107;SDS011;9686;48.832;9.126;2023-02-01T16:13:15;11.77;;;2.03;;
19107;SDS011;9686;48.832;9.126;2023-02-01T16:15:42;8.80;;;1.93;;
19107;SDS011;9686;48.832;9.126;2023-02-01T16:18:08;7.60;;;1.93;;
19107;SDS011;9686;48.832;9.126;2023-02-01T16:20:38;8.37;;;2.37;;
19107;SDS011;9686;48.832;9.126;2023-02-01T16:23:05;6.30;;;1.77;;
19107;SDS011;9686;48.832;9.126;2023-02-01T16:25:31;8.23;;;2.50;;
19107;SDS011;9686;48.832;9.126;2023-02-01T16:27:57;9.20;;;1.90;;
19107;SDS011;9686;48.832;9.126;2023-02-01T16:30:22;5.73;;;1.70;;
19107;SDS011;9686;48.832;9.126;2023-02-01T16:32:51;6.63;;;1.90;;
19107;SDS011;9686;48.832;9.126;2023-02-01T16:35:38;4.70;;;2.10;;
19107;SDS011;9686;48.832;9.126;2023-02-01T16:38:11;8.20;;;1.73;;
19107;SDS011;9686;48.832;9.126;2023-02-01T16:40:40;6.07;;;1.87;;
19107;SDS011;9686;48.832;9.126;2023-02-01T16:43:20;4.47;;;1.90;;
19107;SDS011;9686;48.832;9.126;2023-02-01T16:45:47;7.70;;;1.90;;
19107;SDS011;9686;48.832;9.126;2023-02-01T16:48:35;12.70;;;2.70;;
19107;SDS011;9686;48.832;9.126;2023-02-01T16:51:02;7.30;;;1.90;;
19107;SDS011;9686;48.832;9.126;2023-02-01T16:53:32;12.70;;;2.27;;
19107;SDS011;9686;48.832;9.126;2023-02-01T16:55:58;7.00;;;1.80;;
19107;SDS011;9686;48.832;9.126;2023-02-01T16:58:24;12.50;;;2.33;;
19107;SDS011;9686;48.832;9.126;2023-02-01T17:00:50;6.13;;;2.30;;
19107;SDS011;9686;48.832;9.126;2023-02-01T17:03:17;9.40;;;2.27;;
19107;SDS011;9686;48.832;9.126;2023-02-01T17:05:44;5.07;;;2.00;;
19107;SDS011;9686;48.832;9.126;2023-02-01T17:08:13;9.47;;;2.00;;
19107;SDS011;9686;48.832;9.126;2023-02-01T17:10:47;5.93;;;2.20;;
19107;SDS011;9686;48.832;9.126;2023-02-01T17:13:13;7.37;;;2.30;;
19107;SDS011;9686;48.832;9.126;2023-02-01T17:15:40;4.53;;;1.70;;
19107;SDS011;9686;48.832;9.126;2023-02-01T17:18:13;8.30;;;1.93;;
19107;SDS011;9686;48.832;9.126;2023-02-01T17:20:41;7.37;;;1.90;;
19107;SDS011;9686;48.832;9.126;2023-02-01T17:23:06;3.33;;;1.60;;
19107;SDS011;9686;48.832;9.126;2023-02-01T17:25:32;8.27;;;2.03;;
19107;SDS011;9686;48.832;9.126;2023-02-01T17:27:57;9.10;;;1.93;;
19107;SDS011;9686;48.832;9.126;2023-02-01T17:30:22;9.60;;;3.10;;
19107;SDS011;9686;48.832;9.126;2023-02-01T17:32:48;6.33;;;2.47;;
19107;SDS011;9686;48.832;9.126;2023-02-01T17:35:15;6.83;;;2.33;;
19107;SDS011;9686;48.832;9.126;2023-02-01T17:37:44;5.17;;;2.10;;
19107;SDS011;9686;48.832;9.126;2023-02-01T17:40:09;6.40;;;2.13;;
19107;SDS011;9686;48.832;9.126;2023-02-01T17:42:35;6.50;;;2.00;;
19107;SDS011;9686;48.832;9.126;2023-02-01T17:45:07;7.93;;;2.37;;
19107;SDS011;9686;48.832;9.126;2023-02-01T17:47:41;4.87;;;2.07;;
19107;SDS011;9686;48.832;9.126;2023-02-01T17:50:07;5.13;;;1.60;;
19107;SDS011;9686;48.832;9.126;2023-02-01T17:52:32;8.00;;;1.70;;
19107;SDS011;9686;48.832;9.126;2023-02-01T17:55:00;8.37;;;2.60;;
19107;SDS011;9686;48.832;9.126;2023-02-01T17:57:27;6.80;;;2.30;;
19107;SDS011;9686;48.832;9.126;2023-02-01T17:59:53;7.20;;;2.27;;
19107;SDS011;9686;48.832;9.126;2023-02-01T18:02:19;6.63;;;1.83;;
19107;SDS011;9686;48.832;9.126;2023-02-01T18:04:46;9.07;;;2.47;;
19107;SDS011;9686;48.832;9.126;2023-02-01T18:07:13;5.67;;;2.23;;
19107;SDS011;9686;48.832;9.126;2023-02-01T18:09:39;7.40;;;2.20;;